Time;durP1;ratioP1;P1;durP2;ratioP2;P2;SDS_P1;SDS_P2;PMS_P1;PMS_P2;Temp;Humidity;BMP_temperature;BMP_pressure;BME280_temperature;BME280_humidity;BME280_pressure;Samples;Min_cycle;Max_cycle;Signal;HPM_P1;HPM_P2
2023/01/26 00:00:54;;;;;;;16.20;8.80;;;5.00;99.90;;;;;;5094509;28;20031;-73
2023/01/26 00:03:21;;;;;;;18.02;9.60;;;4.90;99.90;;;;;;5092038;28;20073;-74
2023/01/26 00:05:47;;;;;;;20.70;11.32;;;4.90;99.90;;;;;;5095554;28;20047;-74
2023/01/26 00:08:12;;;;;;;24.52;14.23;;;4.90;99.90;;;;;;5100490;28;21437;-74
2023/01/26 00:10:40;;;;;;;20.30;11.98;;;4.90;99.90;;;;;;5099987;28;20420;-73
2023/01/26 00:13:06;;;;;;;16.20;9.93;;;5.00;99.90;;;;;;5091611;28;20028;-74
2023/01/26 00:15:33;;;;;;;13.85;8.52;;;4.90;99.90;;;;;;5098794;28;20011;-75
2023/01/26 00:18:00;;;;;;;17.15;10.68;;;4.90;99.90;;;;;;5100477;28;20027;-73
2023/01/26 00:20:27;;;;;;;15.18;9.10;;;4.80;99.90;;;;;;5102079;28;20093;-74
2023/01/26 00:22:53;;;;;;;15.48;9.43;;;4.80;99.90;;;;;;5099619;28;20996;-73
2023/01/26 00:25:18;;;;;;;16.05;10.80;;;4.80;99.90;;;;;;5100529;28;20028;-73
2023/01/26 00:27:44;;;;;;;16.65;10.15;;;4.90;99.90;;;;;;5102620;28;20036;-73
2023/01/26 00:30:10;;;;;;;17.55;10.38;;;4.90;99.90;;;;;;5101023;28;20061;-73
2023/01/26 00:32:37;;;;;;;17.58;9.25;;;4.90;99.90;;;;;;5096808;28;20024;-73
2023/01/26 00:35:03;;;;;;;14.75;9.13;;;4.80;99.90;;;;;;5092159;28;20072;-73
2023/01/26 00:37:29;;;;;;;14.25;8.40;;;4.80;99.90;;;;;;5095440;28;20062;-73
2023/01/26 00:39:55;;;;;;;13.20;8.13;;;4.70;99.90;;;;;;5097386;28;20478;-73
2023/01/26 00:42:22;;;;;;;13.25;7.40;;;4.80;99.90;;;;;;5096608;28;20032;-73
2023/01/26 00:44:48;;;;;;;14.07;7.72;;;4.80;99.90;;;;;;5101519;28;20052;-73
2023/01/26 00:47:14;;;;;;;13.18;7.82;;;4.90;99.90;;;;;;5099386;28;20136;-73
2023/01/26 00:49:40;;;;;;;13.63;7.22;;;4.90;99.90;;;;;;5099513;28;20035;-73
2023/01/26 00:52:05;;;;;;;15.55;8.43;;;4.90;99.90;;;;;;5100142;28;20043;-73
2023/01/26 00:54:31;;;;;;;15.57;8.43;;;4.90;99.90;;;;;;5096445;28;20109;-73
2023/01/26 00:56:57;;;;;;;14.35;7.80;;;4.90;99.90;;;;;;5104621;28;20450;-73
2023/01/26 00:59:23;;;;;;;12.85;7.55;;;4.80;99.90;;;;;;5096687;28;20066;-73
2023/01/26 01:01:49;;;;;;;13.43;7.05;;;4.80;99.90;;;;;;5097968;28;20027;-73
2023/01/26 01:04:15;;;;;;;9.90;6.32;;;4.80;99.90;;;;;;5101625;28;20023;-73
2023/01/26 01:06:41;;;;;;;12.43;6.97;;;4.80;99.90;;;;;;5099857;28;20058;-73
2023/01/26 01:09:07;;;;;;;10.60;6.22;;;4.80;99.90;;;;;;5097482;28;20064;-73
2023/01/26 01:11:33;;;;;;;13.27;7.00;;;4.80;99.90;;;;;;5103584;28;20487;-73
2023/01/26 01:13:58;;;;;;;15.05;6.38;;;4.80;99.90;;;;;;5099071;28;20024;-73
2023/01/26 01:16:24;;;;;;;9.70;5.90;;;4.80;99.90;;;;;;5107854;28;20106;-73
2023/01/26 01:18:56;;;;;;;10.70;5.90;;;4.70;99.90;;;;;;5105401;28;20055;-73
2023/01/26 01:21:23;;;;;;;10.50;6.18;;;4.70;99.90;;;;;;5105205;28;20038;-73
2023/01/26 01:23:49;;;;;;;15.07;6.65;;;4.60;99.90;;;;;;5105480;28;20027;-73
2023/01/26 01:26:15;;;;;;;12.25;6.32;;;4.60;99.90;;;;;;5105282;28;20081;-74
2023/01/26 01:28:42;;;;;;;12.90;7.18;;;4.70;99.90;;;;;;5101120;28;20034;-73
2023/01/26 01:31:13;;;;;;;10.98;7.15;;;4.70;99.90;;;;;;5107647;28;20444;-73
2023/01/26 01:33:39;;;;;;;10.45;5.97;;;4.60;99.90;;;;;;5110328;28;20059;-73
2023/01/26 01:36:09;;;;;;;9.40;5.10;;;4.60;99.90;;;;;;5098113;28;20130;-73
2023/01/26 01:38:34;;;;;;;10.48;6.03;;;4.50;99.90;;;;;;5101799;28;20373;-73
2023/01/26 01:41:00;;;;;;;9.20;5.65;;;4.60;99.90;;;;;;5101253;28;20031;-73
2023/01/26 01:43:27;;;;;;;14.15;6.43;;;4.60;99.90;;;;;;5106841;28;20431;-72
2023/01/26 01:45:53;;;;;;;10.95;6.05;;;4.60;99.90;;;;;;5102320;28;20024;-73
2023/01/26 01:48:28;;;;;;;12.75;5.70;;;4.60;99.90;;;;;;5104916;28;20066;-73
2023/01/26 01:51:02;;;;;;;10.80;5.57;;;4.50;99.90;;;;;;5103851;28;20031;-73
2023/01/26 01:53:34;;;;;;;9.80;5.63;;;4.40;99.90;;;;;;5107724;28;20103;-73
2023/01/26 01:56:07;;;;;;;8.43;5.13;;;4.40;99.90;;;;;;5107654;28;20273;-73
2023/01/26 01:58:36;;;;;;;10.27;5.63;;;4.30;99.90;;;;;;5101390;28;20104;-73
2023/01/26 02:01:02;;;;;;;9.27;5.07;;;4.20;99.90;;;;;;5106921;28;20131;-73
2023/01/26 02:03:29;;;;;;;10.05;5.43;;;4.20;99.90;;;;;;5102531;28;20110;-73
2023/01/26 02:06:00;;;;;;;11.15;5.85;;;4.10;99.90;;;;;;5106517;28;20076;-73
2023/01/26 02:08:32;;;;;;;9.20;5.93;;;4.10;99.90;;;;;;5100711;28;20085;-73
2023/01/26 02:11:03;;;;;;;13.25;6.10;;;4.10;99.90;;;;;;5111279;28;20420;-73
2023/01/26 02:13:30;;;;;;;10.02;5.97;;;4.10;99.90;;;;;;5089220;28;20389;-73
2023/01/26 02:15:58;;;;;;;9.13;5.18;;;4.20;99.90;;;;;;5105483;28;20035;-73
2023/01/26 02:18:24;;;;;;;10.55;5.90;;;4.10;99.90;;;;;;5102621;28;20036;-74
2023/01/26 02:20:53;;;;;;;10.63;6.15;;;3.90;99.90;;;;;;5099384;28;20161;-74
2023/01/26 02:23:21;;;;;;;10.30;5.43;;;3.80;99.90;;;;;;5099404;28;20024;-74
2023/01/26 02:25:53;;;;;;;11.02;6.10;;;3.80;99.90;;;;;;5102409;28;20059;-73
2023/01/26 02:28:28;;;;;;;10.18;5.85;;;3.90;99.90;;;;;;5106506;28;20035;-73
2023/01/26 02:30:55;;;;;;;11.57;5.78;;;3.80;99.90;;;;;;5100361;28;20382;-73
2023/01/26 02:33:24;;;;;;;8.52;5.57;;;3.90;99.90;;;;;;5100027;28;20035;-73
2023/01/26 02:35:50;;;;;;;12.52;6.10;;;4.00;99.90;;;;;;5104047;28;20032;-72
2023/01/26 02:38:20;;;;;;;10.82;5.85;;;3.90;99.90;;;;;;5101180;28;20043;-73
2023/01/26 02:40:54;;;;;;;9.82;5.60;;;3.90;99.90;;;;;;5102458;28;20039;-73
2023/01/26 02:43:22;;;;;;;11.63;6.75;;;3.90;99.90;;;;;;5104917;28;20023;-73
2023/01/26 02:45:48;;;;;;;10.13;4.55;;;3.80;99.90;;;;;;5102898;28;20016;-73
2023/01/26 02:49:45;;;;;;;9.65;5.75;;;3.80;99.90;;;;;;5106134;28;20047;-73
2023/01/26 02:50:59;;;;;;;11.02;5.85;;;3.90;99.90;;;;;;5104742;28;20068;-74
2023/01/26 02:53:25;;;;;;;9.52;4.80;;;3.80;99.90;;;;;;5102418;28;20407;-73
2023/01/26 02:55:51;;;;;;;9.20;5.45;;;3.80;99.90;;;;;;5105975;28;20028;-73
2023/01/26 02:58:17;;;;;;;11.35;4.93;;;3.70;99.90;;;;;;5106933;28;20032;-74
2023/01/26 03:00:42;;;;;;;12.23;6.05;;;3.70;99.90;;;;;;5102664;28;20055;-73
2023/01/26 03:03:18;;;;;;;9.23;5.15;;;3.70;99.90;;;;;;5105104;28;20028;-73
2023/01/26 03:05:43;;;;;;;10.68;5.97;;;3.60;99.90;;;;;;5095871;28;20069;-73
2023/01/26 03:08:09;;;;;;;10.27;5.82;;;3.70;99.90;;;;;;5098554;28;20040;-74
2023/01/26 03:10:35;;;;;;;7.00;4.05;;;3.60;99.90;;;;;;5102357;28;20124;-73
2023/01/26 03:13:02;;;;;;;9.60;5.03;;;3.60;99.90;;;;;;5102127;28;20034;-73
2023/01/26 03:15:42;;;;;;;10.93;5.43;;;3.70;99.90;;;;;;5105211;28;20036;-73
2023/01/26 03:29:11;;;;;;;7.90;3.93;;;3.70;99.90;;;;;;5096102;28;20077;-73
2023/01/26 03:31:37;;;;;;;9.38;4.68;;;3.70;99.90;;;;;;5104181;28;20028;-73
2023/01/26 03:34:03;;;;;;;9.23;4.82;;;3.70;99.90;;;;;;5106791;28;20062;-73
2023/01/26 03:36:29;;;;;;;10.13;4.78;;;3.60;99.90;;;;;;5093347;28;20413;-73
2023/01/26 03:38:55;;;;;;;8.02;5.15;;;3.70;99.90;;;;;;5102520;28;20024;-73
2023/01/26 03:57:44;;;;;;;7.60;4.47;;;3.60;99.90;;;;;;5103821;28;20171;-73
2023/01/26 04:00:13;;;;;;;8.20;4.82;;;3.50;99.90;;;;;;5104499;28;20020;-73
2023/01/26 04:08:25;;;;;;;9.38;4.13;;;3.50;99.90;;;;;;5095825;28;19925;-74
2023/01/26 04:10:55;;;;;;;8.30;4.82;;;3.50;99.90;;;;;;5093334;28;20452;-73
2023/01/26 04:21:37;;;;;;;8.40;3.97;;;3.10;99.90;;;;;;5097421;28;20120;-74
2023/01/26 04:24:12;;;;;;;11.10;4.88;;;3.10;99.90;;;;;;5100459;28;20079;-73
2023/01/26 04:26:39;;;;;;;6.47;3.63;;;3.10;99.90;;;;;;5096845;28;20023;-74
2023/01/26 04:29:15;;;;;;;6.57;3.42;;;3.10;99.90;;;;;;5101471;28;20163;-75
2023/01/26 04:31:42;;;;;;;11.70;3.70;;;3.10;99.90;;;;;;5097447;28;20035;-74
2023/01/26 04:34:12;;;;;;;7.35;4.18;;;2.90;99.90;;;;;;5094650;28;20042;-74
2023/01/26 04:36:38;;;;;;;5.75;3.38;;;2.90;99.90;;;;;;5098349;28;20044;-74
2023/01/26 04:39:04;;;;;;;7.35;3.80;;;2.80;99.90;;;;;;5094037;28;20046;-74
2023/01/26 04:41:31;;;;;;;6.93;3.90;;;2.70;99.90;;;;;;5104258;28;20028;-73
2023/01/26 04:43:57;;;;;;;8.35;3.65;;;2.70;99.90;;;;;;5094397;28;20059;-76
2023/01/26 04:46:23;;;;;;;5.68;3.03;;;2.70;99.90;;;;;;5098400;28;20161;-73
2023/01/26 04:48:49;;;;;;;6.07;3.65;;;2.60;99.90;;;;;;5097647;28;20032;-74
2023/01/26 04:51:19;;;;;;;8.40;3.58;;;2.60;99.90;;;;;;5095430;28;20036;-74
2023/01/26 04:53:46;;;;;;;7.00;3.67;;;2.50;99.90;;;;;;5101814;28;20027;-74
2023/01/26 04:56:30;;;;;;;7.30;3.90;;;2.50;99.90;;;;;;5097629;28;20036;-73
2023/01/26 04:58:58;;;;;;;10.32;4.68;;;2.30;99.90;;;;;;5089679;28;20653;-74
2023/01/26 05:01:24;;;;;;;6.75;3.83;;;2.10;99.90;;;;;;5094306;28;20037;-76
2023/01/26 05:03:49;;;;;;;9.38;4.43;;;2.10;99.90;;;;;;5092394;28;20090;-74
2023/01/26 05:06:15;;;;;;;7.45;4.30;;;2.00;99.90;;;;;;5091271;28;20027;-74
2023/01/26 05:08:41;;;;;;;9.00;4.32;;;2.00;99.90;;;;;;5090477;28;20063;-74
2023/01/26 05:11:07;;;;;;;8.40;4.07;;;2.00;99.90;;;;;;5094318;28;20155;-74
2023/01/26 05:13:34;;;;;;;6.68;3.42;;;2.00;99.90;;;;;;5092911;28;20161;-73
2023/01/26 05:16:01;;;;;;;8.18;4.43;;;1.90;99.90;;;;;;5089027;28;20135;-74
2023/01/26 05:18:27;;;;;;;7.35;4.18;;;2.10;99.90;;;;;;5097207;28;20128;-74
2023/01/26 05:20:53;;;;;;;7.03;3.95;;;2.20;99.90;;;;;;5088228;28;20039;-74
2023/01/26 05:23:19;;;;;;;6.18;3.05;;;2.10;99.90;;;;;;5088360;28;20024;-74
2023/01/26 05:25:45;;;;;;;6.97;3.33;;;2.10;99.90;;;;;;5098518;28;20023;-73
2023/01/26 05:28:10;;;;;;;5.55;3.30;;;2.20;99.90;;;;;;5094687;28;20044;-74
2023/01/26 05:30:36;;;;;;;6.28;3.38;;;2.10;99.90;;;;;;5090342;28;20032;-74
2023/01/26 05:33:07;;;;;;;7.32;3.22;;;2.20;99.90;;;;;;5094453;28;20032;-74
2023/01/26 05:35:33;;;;;;;6.90;3.45;;;2.20;99.90;;;;;;5088156;28;20710;-74
2023/01/26 05:37:59;;;;;;;5.18;2.83;;;2.20;99.90;;;;;;5077235;28;20440;-73
2023/01/26 05:40:25;;;;;;;6.20;3.08;;;2.20;99.90;;;;;;5099180;28;20028;-73
2023/01/26 05:42:51;;;;;;;5.75;2.72;;;2.20;99.90;;;;;;5090852;28;20055;-76
2023/01/26 05:45:17;;;;;;;4.90;2.53;;;2.20;99.90;;;;;;5092111;28;20035;-73
2023/01/26 05:47:44;;;;;;;5.57;3.40;;;2.20;99.90;;;;;;5092555;28;20564;-75
2023/01/26 05:50:11;;;;;;;6.20;3.60;;;2.10;99.90;;;;;;5094396;28;20031;-73
2023/01/26 05:52:37;;;;;;;7.25;3.25;;;2.00;99.90;;;;;;5092549;28;20043;-74
2023/01/26 05:55:04;;;;;;;5.80;3.70;;;2.10;99.90;;;;;;5096789;28;20031;-74
2023/01/26 05:57:30;;;;;;;6.72;3.42;;;2.10;99.90;;;;;;5091290;28;20650;-74
2023/01/26 05:59:55;;;;;;;5.32;2.88;;;2.20;99.90;;;;;;5089832;28;20032;-73
2023/01/26 06:02:21;;;;;;;6.10;2.97;;;2.00;99.90;;;;;;5101551;28;20032;-73
2023/01/26 06:04:47;;;;;;;6.50;3.17;;;1.90;99.90;;;;;;5095519;28;20381;-74
2023/01/26 06:07:12;;;;;;;8.48;4.13;;;1.60;99.90;;;;;;5093316;28;20514;-74
2023/01/26 06:09:39;;;;;;;5.82;3.28;;;1.70;99.90;;;;;;5095158;28;20024;-73
2023/01/26 06:12:10;;;;;;;7.00;2.90;;;1.60;99.90;;;;;;5101800;28;20063;-75
2023/01/26 06:14:35;;;;;;;5.80;2.63;;;1.70;99.90;;;;;;5099647;28;20020;-74
2023/01/26 06:17:01;;;;;;;5.03;2.58;;;1.90;99.90;;;;;;5098885;28;20490;-73
2023/01/26 06:19:27;;;;;;;8.18;3.22;;;1.70;99.90;;;;;;5100874;28;20043;-73
2023/01/26 06:21:52;;;;;;;5.75;3.03;;;1.50;99.90;;;;;;5092957;28;20019;-73
2023/01/26 06:24:18;;;;;;;6.82;3.20;;;1.50;99.90;;;;;;5100355;28;20492;-72
2023/01/26 06:26:47;;;;;;;5.93;2.63;;;1.70;99.90;;;;;;5097561;28;20020;-74
2023/01/26 06:29:13;;;;;;;6.63;3.22;;;1.70;99.90;;;;;;5097974;28;20039;-73
2023/01/26 06:31:39;;;;;;;8.55;4.20;;;1.70;99.90;;;;;;5098337;28;20027;-74
2023/01/26 06:34:04;;;;;;;4.85;2.50;;;1.70;99.90;;;;;;5091729;28;20035;-74
2023/01/26 06:36:30;;;;;;;8.18;2.90;;;1.70;99.90;;;;;;5097672;27;20053;-75
2023/01/26 06:38:56;;;;;;;6.07;2.50;;;1.30;99.90;;;;;;5093250;28;20059;-74
2023/01/26 06:41:22;;;;;;;5.07;2.42;;;1.50;99.90;;;;;;5099650;28;20047;-73
2023/01/26 06:43:48;;;;;;;4.88;2.30;;;1.40;99.90;;;;;;5097556;28;20028;-72
2023/01/26 06:46:15;;;;;;;4.93;2.70;;;1.60;99.90;;;;;;5086925;28;20098;-73
2023/01/26 06:48:41;;;;;;;5.72;2.97;;;1.50;99.90;;;;;;5095621;28;20124;-73
2023/01/26 06:51:15;;;;;;;6.05;3.08;;;1.50;99.90;;;;;;5098973;28;20032;-76
2023/01/26 06:53:52;;;;;;;5.68;3.25;;;1.60;99.90;;;;;;5091175;28;20024;-72
2023/01/26 06:56:18;;;;;;;6.80;2.55;;;1.60;99.90;;;;;;5093142;28;20039;-72
2023/01/26 06:58:43;;;;;;;8.07;3.35;;;1.60;99.90;;;;;;5097162;28;20028;-79
2023/01/26 07:01:24;;;;;;;5.80;2.70;;;1.60;99.90;;;;;;5098662;28;20035;-74
2023/01/26 07:03:51;;;;;;;4.88;2.65;;;1.70;99.90;;;;;;5095587;28;20058;-73
2023/01/26 07:06:17;;;;;;;7.30;3.38;;;1.60;99.90;;;;;;5093990;28;20031;-76
2023/01/26 07:08:43;;;;;;;6.10;2.70;;;1.60;99.90;;;;;;5088450;28;20035;-73
2023/01/26 07:11:10;;;;;;;6.47;3.05;;;1.60;99.90;;;;;;5097028;28;20020;-72
2023/01/26 07:13:35;;;;;;;5.53;2.92;;;1.60;99.90;;;;;;5094777;28;20059;-73
2023/01/26 07:16:11;;;;;;;6.18;2.95;;;1.40;99.90;;;;;;5092990;28;20063;-73
2023/01/26 07:18:37;;;;;;;7.60;3.53;;;1.50;99.90;;;;;;5093722;28;20032;-74
2023/01/26 07:21:04;;;;;;;5.47;3.08;;;1.50;99.90;;;;;;5094013;28;20026;-72
2023/01/26 07:23:30;;;;;;;6.55;2.55;;;1.50;99.90;;;;;;5095643;28;20063;-73
2023/01/26 07:25:58;;;;;;;4.78;2.60;;;1.60;99.90;;;;;;5091274;28;20631;-73
2023/01/26 07:28:25;;;;;;;7.82;3.42;;;1.70;99.90;;;;;;5099921;28;20154;-73
2023/01/26 07:30:51;;;;;;;5.55;2.72;;;1.70;99.90;;;;;;5095805;28;20036;-73
2023/01/26 07:33:17;;;;;;;5.75;2.95;;;1.60;99.90;;;;;;5095371;28;20111;-73
2023/01/26 07:35:43;;;;;;;4.20;2.05;;;1.60;99.90;;;;;;5081464;28;20360;-73
2023/01/26 07:38:09;;;;;;;6.00;2.80;;;1.70;99.90;;;;;;5092158;28;20043;-72
2023/01/26 07:40:34;;;;;;;7.13;2.53;;;1.70;99.90;;;;;;5093873;28;20018;-73
2023/01/26 07:43:00;;;;;;;5.90;3.00;;;1.70;99.90;;;;;;5092781;28;20026;-73
2023/01/26 07:45:26;;;;;;;5.70;2.90;;;1.70;99.90;;;;;;5084106;28;20051;-73
2023/01/26 07:47:56;;;;;;;7.10;3.67;;;1.70;99.90;;;;;;5089950;28;20150;-73
2023/01/26 07:50:24;;;;;;;5.35;2.80;;;1.70;99.90;;;;;;5093506;28;20042;-73
2023/01/26 07:52:53;;;;;;;6.53;2.53;;;1.70;99.90;;;;;;5095939;28;20032;-72
2023/01/26 07:55:19;;;;;;;4.60;2.78;;;1.70;99.90;;;;;;5087247;28;20039;-75
2023/01/26 07:57:48;;;;;;;7.43;2.95;;;1.80;99.90;;;;;;5089899;28;20059;-74
2023/01/26 08:00:16;;;;;;;4.85;2.50;;;1.70;99.90;;;;;;5087480;28;20498;-77
2023/01/26 08:02:41;;;;;;;5.35;2.95;;;1.80;99.90;;;;;;5095983;28;20115;-74
2023/01/26 08:05:07;;;;;;;5.32;2.63;;;1.70;99.90;;;;;;5093776;28;20552;-75
2023/01/26 08:07:33;;;;;;;6.45;2.60;;;1.70;99.90;;;;;;5095273;28;20118;-79
2023/01/26 08:09:59;;;;;;;4.85;2.30;;;1.80;99.90;;;;;;5091263;28;20118;-77
2023/01/26 08:12:25;;;;;;;6.70;2.40;;;1.80;99.90;;;;;;5094056;28;20390;-75
2023/01/26 08:14:51;;;;;;;6.43;3.00;;;1.70;99.90;;;;;;5091887;28;20032;-72
2023/01/26 08:17:17;;;;;;;5.85;2.55;;;1.60;99.90;;;;;;5100730;28;20027;-74
2023/01/26 08:19:44;;;;;;;5.70;2.90;;;1.70;99.90;;;;;;5098303;28;20111;-73
2023/01/26 08:22:10;;;;;;;6.53;2.70;;;1.60;99.90;;;;;;5089285;28;20110;-73
2023/01/26 08:24:36;;;;;;;5.45;3.00;;;1.70;99.90;;;;;;5095396;28;20079;-73
2023/01/26 08:27:01;;;;;;;8.18;3.92;;;1.60;99.90;;;;;;5092352;28;20028;-73
2023/01/26 08:29:27;;;;;;;4.38;2.65;;;1.80;99.90;;;;;;5092243;28;20024;-72
2023/01/26 08:31:53;;;;;;;8.90;4.60;;;1.80;99.90;;;;;;5094678;28;20044;-73
2023/01/26 08:34:21;;;;;;;7.22;2.55;;;1.80;99.90;;;;;;5091578;28;20021;-72
2023/01/26 08:36:47;;;;;;;4.75;2.40;;;1.80;99.90;;;;;;5096298;28;20659;-73
2023/01/26 08:39:12;;;;;;;7.40;3.60;;;1.50;99.90;;;;;;5092969;28;20028;-73
2023/01/26 08:41:38;;;;;;;6.25;3.00;;;1.60;99.90;;;;;;5096105;28;20397;-76
2023/01/26 08:44:05;;;;;;;5.72;2.78;;;1.60;99.90;;;;;;5090812;28;20044;-73
2023/01/26 08:46:30;;;;;;;6.97;2.72;;;1.80;99.90;;;;;;5095242;28;20034;-73
2023/01/26 08:48:56;;;;;;;6.82;3.15;;;1.90;99.90;;;;;;5092181;28;20036;-73
2023/01/26 08:51:22;;;;;;;5.15;2.50;;;1.80;99.90;;;;;;5096454;28;20155;-72
2023/01/26 08:53:47;;;;;;;6.75;3.28;;;1.90;99.90;;;;;;5095933;28;20027;-72
2023/01/26 08:56:13;;;;;;;6.43;3.38;;;1.90;99.90;;;;;;5093177;28;20035;-73
2023/01/26 08:58:39;;;;;;;7.47;3.63;;;2.00;99.90;;;;;;5093511;28;20035;-74
2023/01/26 09:01:11;;;;;;;6.07;2.67;;;2.00;99.90;;;;;;5091699;28;20088;-72
2023/01/26 09:03:37;;;;;;;5.85;2.45;;;1.90;99.90;;;;;;5095920;28;20048;-73
2023/01/26 09:06:04;;;;;;;7.55;3.25;;;1.90;99.90;;;;;;5092518;28;20035;-73
2023/01/26 09:08:31;;;;;;;6.35;2.90;;;2.00;99.90;;;;;;5092667;28;20042;-74
2023/01/26 09:10:57;;;;;;;6.10;3.10;;;2.10;99.70;;;;;;5087158;28;20112;-72
2023/01/26 09:13:23;;;;;;;6.63;3.13;;;2.20;99.90;;;;;;5091875;28;20046;-71
2023/01/26 09:15:48;;;;;;;4.70;2.40;;;2.20;99.90;;;;;;5092605;28;20032;-70
2023/01/26 09:18:14;;;;;;;7.75;3.70;;;2.00;99.90;;;;;;5094819;28;20034;-72
2023/01/26 09:20:40;;;;;;;8.10;3.70;;;2.10;99.90;;;;;;5087999;28;20055;-72
2023/01/26 09:23:06;;;;;;;6.50;3.60;;;2.10;99.90;;;;;;5096361;28;20030;-73
2023/01/26 09:25:35;;;;;;;5.93;3.28;;;2.20;99.90;;;;;;5094528;28;20032;-71
2023/01/26 09:28:03;;;;;;;5.65;3.00;;;2.20;99.70;;;;;;5088090;28;20525;-73
2023/01/26 09:30:29;;;;;;;6.82;3.00;;;2.20;99.90;;;;;;5090977;28;20586;-72
2023/01/26 09:32:59;;;;;;;5.85;2.92;;;2.20;99.90;;;;;;5098236;27;20028;-70
2023/01/26 09:35:26;;;;;;;5.25;2.85;;;2.30;99.90;;;;;;5092458;28;20031;-72
2023/01/26 09:37:51;;;;;;;6.10;3.08;;;2.30;99.90;;;;;;5096181;28;20497;-72
2023/01/26 09:40:33;;;;;;;4.22;2.20;;;2.90;99.90;;;;;;5096034;28;20020;-71
2023/01/26 09:43:13;;;;;;;10.18;3.85;;;5.20;99.90;;;;;;5108132;28;20521;-71
2023/01/26 09:45:49;;;;;;;6.55;3.55;;;4.50;99.60;;;;;;5099253;28;20030;-77
2023/01/26 09:48:40;;;;;;;7.53;3.55;;;4.50;99.90;;;;;;5108305;28;20430;-71
2023/01/26 09:51:32;;;;;;;6.10;3.20;;;4.10;98.70;;;;;;5108044;28;20982;-72
2023/01/26 09:54:03;;;;;;;8.98;3.05;;;3.50;99.90;;;;;;5107900;28;20418;-72
2023/01/26 09:56:31;;;;;;;7.63;3.65;;;4.30;99.90;;;;;;5103298;28;20363;-72
2023/01/26 09:59:42;;;;;;;10.75;5.15;;;4.40;99.60;;;;;;5087672;28;20051;-72
2023/01/26 10:02:19;;;;;;;6.82;3.72;;;4.20;98.10;;;;;;5047568;28;20111;-72
2023/01/26 10:04:50;;;;;;;8.73;3.38;;;3.80;99.10;;;;;;5086999;28;21030;-72
2023/01/26 10:07:16;;;;;;;7.60;3.70;;;3.30;99.40;;;;;;5087191;28;20036;-71
2023/01/26 10:09:46;;;;;;;6.85;3.05;;;2.90;99.90;;;;;;5087049;28;20028;-71
2023/01/26 10:12:17;;;;;;;6.30;3.20;;;2.80;99.90;;;;;;5087289;28;20035;-71
2023/01/26 10:15:11;;;;;;;6.25;3.20;;;2.80;99.90;;;;;;5087327;28;20085;-71
2023/01/26 10:17:42;;;;;;;6.25;2.88;;;2.90;99.90;;;;;;5072609;28;20048;-73
2023/01/26 10:20:14;;;;;;;5.00;3.03;;;3.00;99.70;;;;;;5086857;28;20743;-72
2023/01/26 10:22:53;;;;;;;9.35;3.63;;;2.90;99.80;;;;;;5087558;28;20028;-71
2023/01/26 10:25:32;;;;;;;6.53;3.53;;;2.90;99.90;;;;;;5098229;28;20019;-73
2023/01/26 10:27:58;;;;;;;12.02;3.58;;;2.90;99.80;;;;;;5107352;28;20053;-73
2023/01/26 10:30:24;;;;;;;6.78;3.28;;;3.00;99.40;;;;;;5089338;28;20027;-72
2023/01/26 10:32:51;;;;;;;6.50;3.65;;;3.10;99.60;;;;;;5107606;28;20518;-73
2023/01/26 10:35:20;;;;;;;8.02;4.10;;;3.10;99.40;;;;;;5088194;28;20039;-71
2023/01/26 10:37:47;;;;;;;11.00;6.45;;;3.20;99.70;;;;;;5106515;28;20530;-71
2023/01/26 10:40:12;;;;;;;10.10;5.90;;;3.30;99.70;;;;;;5097022;28;20028;-73
2023/01/26 10:42:39;;;;;;;6.40;4.20;;;3.40;99.30;;;;;;5092563;28;20031;-73
2023/01/26 10:45:23;;;;;;;8.75;3.08;;;3.40;99.10;;;;;;5091955;28;20462;-71
2023/01/26 10:48:18;;;;;;;8.03;3.73;;;3.40;98.70;;;;;;5096779;28;20135;-73
2023/01/26 10:50:45;;;;;;;6.47;3.22;;;3.50;99.20;;;;;;5095806;28;20372;-74
2023/01/26 10:53:22;;;;;;;8.80;3.80;;;3.50;99.00;;;;;;5097486;28;20076;-73
2023/01/26 10:56:10;;;;;;;6.15;3.50;;;3.70;99.10;;;;;;5092519;28;20130;-73
2023/01/26 10:58:48;;;;;;;7.53;4.00;;;3.70;98.90;;;;;;5093596;28;20037;-73
2023/01/26 11:01:17;;;;;;;8.35;4.45;;;3.80;98.70;;;;;;5093067;28;20031;-73
2023/01/26 11:04:11;;;;;;;7.88;3.88;;;3.80;99.10;;;;;;5095204;28;20453;-74
2023/01/26 11:06:37;;;;;;;6.97;3.97;;;3.90;98.60;;;;;;5097697;28;20028;-73
2023/01/26 11:09:25;;;;;;;7.25;3.88;;;4.00;98.50;;;;;;5088618;28;20036;-73
2023/01/26 11:11:55;;;;;;;9.00;4.93;;;4.10;98.70;;;;;;5091952;28;20035;-75
2023/01/26 11:14:21;;;;;;;7.47;3.28;;;4.10;98.20;;;;;;5097776;28;20045;-73
2023/01/26 11:17:26;;;;;;;6.88;3.40;;;4.20;98.10;;;;;;5094155;28;20038;-73
2023/01/26 11:20:06;;;;;;;5.10;3.30;;;4.10;98.00;;;;;;4998024;28;20565;-75
2023/01/26 11:22:43;;;;;;;7.50;3.83;;;4.30;98.40;;;;;;5001564;28;20086;-75
2023/01/26 11:25:33;;;;;;;7.22;3.20;;;4.40;98.30;;;;;;5049791;28;20540;-73
2023/01/26 11:28:38;;;;;;;8.13;4.07;;;4.40;98.20;;;;;;5085163;28;20541;-73
2023/01/26 11:31:18;;;;;;;10.93;6.97;;;4.60;98.10;;;;;;5089041;28;20051;-73
2023/01/26 11:34:13;;;;;;;8.25;5.47;;;4.70;97.60;;;;;;5089606;28;20047;-75
2023/01/26 11:36:53;;;;;;;5.68;3.35;;;4.80;97.70;;;;;;5094267;28;20043;-74
2023/01/26 11:39:41;;;;;;;7.43;4.03;;;5.20;97.50;;;;;;5092844;28;20062;-73
2023/01/26 11:42:14;;;;;;;7.43;4.07;;;5.10;96.70;;;;;;5091788;28;20036;-73
2023/01/26 11:44:43;;;;;;;8.07;4.47;;;5.20;96.70;;;;;;5094516;28;20302;-73
2023/01/26 11:47:27;;;;;;;8.48;3.50;;;5.30;96.60;;;;;;5092292;28;20024;-73
2023/01/26 11:50:06;;;;;;;6.28;3.25;;;5.10;96.50;;;;;;5092774;28;20114;-74
2023/01/26 11:53:01;;;;;;;7.65;3.35;;;5.10;96.10;;;;;;5092912;28;20039;-73
2023/01/26 11:55:54;;;;;;;7.07;3.92;;;5.10;96.40;;;;;;5089259;28;20470;-72
2023/01/26 11:59:16;;;;;;;7.88;3.95;;;5.20;95.90;;;;;;5097605;28;20093;-73
2023/01/26 12:01:54;;;;;;;7.60;3.90;;;5.70;96.30;;;;;;5017318;28;20033;-75
2023/01/26 12:04:21;;;;;;;7.00;4.20;;;5.90;96.10;;;;;;5093346;28;20410;-72
2023/01/26 12:07:02;;;;;;;7.10;3.28;;;5.80;96.00;;;;;;5095715;28;20028;-72
2023/01/26 12:09:41;;;;;;;6.07;2.97;;;5.90;96.40;;;;;;5102774;28;20553;-73
2023/01/26 12:12:24;;;;;;;7.88;3.80;;;6.10;95.20;;;;;;5096600;28;20043;-73
2023/01/26 12:14:54;;;;;;;6.15;3.53;;;6.10;95.50;;;;;;5101414;28;20027;-74
2023/01/26 12:17:25;;;;;;;7.70;3.90;;;6.00;95.40;;;;;;5099109;28;20015;-73
2023/01/26 12:20:26;;;;;;;6.35;2.97;;;6.00;95.50;;;;;;5100082;28;20644;-74
2023/01/26 12:23:03;;;;;;;7.78;3.17;;;6.00;95.20;;;;;;5086942;28;20373;-73
2023/01/26 12:25:48;;;;;;;5.78;2.95;;;6.00;95.40;;;;;;5093842;28;20034;-74
2023/01/26 12:28:37;;;;;;;6.70;3.20;;;6.20;95.00;;;;;;5092126;28;20040;-74
2023/01/26 12:31:12;;;;;;;5.57;2.90;;;6.30;94.70;;;;;;5097524;28;20092;-75
2023/01/26 12:33:38;;;;;;;7.68;3.25;;;6.30;94.80;;;;;;5096697;28;20024;-74
2023/01/26 12:36:31;;;;;;;6.03;2.53;;;6.30;94.40;;;;;;5098165;28;20538;-74
2023/01/26 12:39:15;;;;;;;5.20;2.95;;;6.20;94.40;;;;;;5091087;28;20032;-74
2023/01/26 12:42:05;;;;;;;6.38;3.00;;;6.30;94.50;;;;;;5093145;28;20066;-74
2023/01/26 12:44:41;;;;;;;9.32;3.13;;;6.40;93.70;;;;;;5088806;28;20496;-74
2023/01/26 12:47:13;;;;;;;6.28;3.10;;;6.50;94.00;;;;;;5093856;28;20619;-77
2023/01/26 12:49:47;;;;;;;4.82;2.53;;;6.40;93.80;;;;;;5091014;28;20034;-75
2023/01/26 12:52:43;;;;;;;8.23;3.33;;;6.30;93.90;;;;;;5091113;28;20032;-75
2023/01/26 12:55:27;;;;;;;7.13;3.58;;;6.30;94.00;;;;;;5084188;28;20104;-74
2023/01/26 12:58:28;;;;;;;9.80;3.50;;;6.50;94.20;;;;;;5090071;28;20040;-73
2023/01/26 13:01:04;;;;;;;7.57;2.85;;;6.50;94.10;;;;;;5080595;28;20050;-74
2023/01/26 13:03:42;;;;;;;5.50;3.08;;;6.40;93.50;;;;;;5084089;28;20066;-74
2023/01/26 13:06:11;;;;;;;6.22;2.78;;;6.40;93.50;;;;;;5090543;28;20092;-74
2023/01/26 13:08:37;;;;;;;5.90;2.58;;;6.60;93.60;;;;;;5098140;28;20089;-77
2023/01/26 13:11:07;;;;;;;7.32;2.90;;;6.60;93.30;;;;;;5092871;28;20024;-74
2023/01/26 13:13:51;;;;;;;5.28;2.83;;;6.60;93.50;;;;;;5095276;28;20039;-74
2023/01/26 13:16:16;;;;;;;5.97;3.17;;;6.70;94.00;;;;;;5093040;28;20063;-75
2023/01/26 13:18:56;;;;;;;6.80;2.88;;;6.60;93.40;;;;;;5091920;28;20548;-73
2023/01/26 13:21:35;;;;;;;6.65;3.25;;;6.70;93.10;;;;;;5097873;28;20028;-74
2023/01/26 13:24:00;;;;;;;4.57;2.40;;;6.90;93.40;;;;;;5092214;28;20027;-74
2023/01/26 13:26:32;;;;;;;6.60;3.00;;;6.90;93.20;;;;;;5096022;28;20032;-73
2023/01/26 13:29:32;;;;;;;5.97;3.05;;;6.80;93.10;;;;;;5094002;28;20036;-74
2023/01/26 13:32:01;;;;;;;4.68;2.80;;;6.70;93.20;;;;;;5095196;28;20051;-75
2023/01/26 13:34:36;;;;;;;5.47;2.67;;;6.70;92.90;;;;;;5095163;28;20027;-73
2023/01/26 13:37:16;;;;;;;6.78;2.55;;;6.90;93.20;;;;;;5086939;28;20070;-75
2023/01/26 13:39:47;;;;;;;5.72;3.08;;;6.80;94.00;;;;;;5099632;28;20038;-75
2023/01/26 13:42:22;;;;;;;8.55;3.83;;;6.90;93.90;;;;;;5099664;28;20034;-73
2023/01/26 13:45:01;;;;;;;7.38;3.45;;;6.90;93.40;;;;;;5101736;28;20028;-75
2023/01/26 13:47:44;;;;;;;5.03;3.10;;;6.90;94.30;;;;;;5084362;28;20587;-75
2023/01/26 13:50:28;;;;;;;6.20;3.33;;;6.90;93.60;;;;;;5099928;28;20035;-75
2023/01/26 13:52:53;;;;;;;10.00;4.05;;;7.00;94.20;;;;;;5099396;28;20132;-74
2023/01/26 13:55:41;;;;;;;8.45;3.92;;;7.00;94.10;;;;;;5100009;28;20028;-76